createdAt,value
2023-02-13T00:01:32.133Z,13.10
2023-02-13T00:04:01.162Z,9.70
2023-02-13T00:06:29.747Z,11.30
2023-02-13T00:08:58.280Z,13.80
2023-02-13T00:11:26.937Z,10.90
2023-02-13T00:13:55.431Z,12.70
2023-02-13T00:16:23.993Z,12.30
2023-02-13T00:18:52.613Z,16.70
2023-02-13T00:21:21.782Z,14.40
2023-02-13T00:23:50.314Z,16.60
2023-02-13T00:26:18.816Z,16.10
2023-02-13T00:28:48.678Z,16.90
2023-02-13T00:31:21.318Z,17.80
2023-02-13T00:33:50.943Z,13.70
2023-02-13T00:36:22.969Z,11.30
2023-02-13T00:38:55.083Z,15.50
2023-02-13T00:41:24.470Z,13.90
2023-02-13T00:43:53.243Z,19.90
2023-02-13T00:46:22.028Z,14.90
2023-02-13T00:48:50.713Z,15.70
2023-02-13T00:51:19.210Z,11.80
2023-02-13T00:53:47.674Z,15.50
2023-02-13T00:56:17.333Z,14.20
2023-02-13T00:58:46.618Z,12.70
2023-02-13T01:01:15.684Z,17.70
2023-02-13T01:03:44.488Z,16.90
2023-02-13T01:06:13.100Z,13.30
2023-02-13T01:08:42.048Z,13.80
2023-02-13T01:11:11.079Z,12.90
2023-02-13T01:13:39.630Z,16.30
2023-02-13T01:16:08.372Z,13.40
2023-02-13T01:18:37.361Z,12.40
2023-02-13T01:21:08.888Z,16.00
2023-02-13T01:23:39.219Z,13.30
2023-02-13T01:26:11.332Z,18.50
2023-02-13T01:28:40.067Z,16.80
2023-02-13T01:31:08.943Z,14.40
2023-02-13T01:33:37.585Z,16.80
2023-02-13T01:36:14.230Z,18.40
2023-02-13T01:38:43.840Z,20.10
2023-02-13T01:41:12.521Z,14.10
2023-02-13T01:43:50.870Z,14.70
2023-02-13T01:46:34.090Z,18.00
2023-02-13T01:49:19.078Z,12.10
2023-02-13T01:51:52.803Z,19.00
2023-02-13T01:54:32.968Z,20.70
2023-02-13T01:57:29.914Z,16.80
2023-02-13T02:00:09.613Z,18.90
2023-02-13T02:02:57.780Z,16.80
2023-02-13T02:05:32.773Z,15.30
2023-02-13T02:08:04.224Z,19.40
2023-02-13T02:10:33.737Z,19.40
2023-02-13T02:13:14.761Z,23.10
2023-02-13T02:15:43.773Z,21.00
2023-02-13T02:18:19.229Z,20.90
2023-02-13T02:21:09.705Z,21.30
2023-02-13T02:24:19.674Z,21.40
2023-02-13T02:27:10.390Z,19.90
2023-02-13T02:30:25.074Z,20.10
2023-02-13T02:33:33.335Z,22.40
2023-02-13T02:36:29.516Z,24.20
2023-02-13T02:39:30.850Z,18.40
2023-02-13T02:42:45.566Z,18.90
2023-02-13T02:45:33.025Z,22.00
2023-02-13T02:48:49.665Z,23.60
2023-02-13T02:51:37.511Z,16.50
2023-02-13T02:54:51.587Z,23.10
2023-02-13T02:57:51.610Z,20.80
2023-02-13T03:00:43.877Z,18.80
2023-02-13T03:03:42.341Z,18.30
2023-02-13T03:06:45.168Z,16.30
2023-02-13T03:09:43.988Z,20.30
2023-02-13T03:12:36.296Z,20.70
2023-02-13T03:15:05.862Z,19.60
2023-02-13T03:18:21.471Z,25.80
2023-02-13T03:21:33.441Z,17.50
2023-02-13T03:24:14.427Z,21.70
2023-02-13T03:27:12.062Z,18.00
2023-02-13T03:30:14.018Z,18.70
2023-02-13T03:33:04.177Z,21.00
2023-02-13T03:36:09.010Z,21.00
2023-02-13T03:39:00.736Z,20.10
2023-02-13T03:41:43.487Z,27.00
2023-02-13T03:44:33.743Z,22.60
2023-02-13T03:47:06.656Z,21.90
2023-02-13T03:50:05.909Z,20.40
2023-02-13T03:53:01.420Z,25.40
2023-02-13T03:56:00.375Z,21.50
2023-02-13T03:58:55.080Z,26.00
2023-02-13T04:01:30.708Z,25.20
2023-02-13T04:04:04.051Z,22.60
2023-02-13T04:07:00.263Z,29.70
2023-02-13T04:09:31.653Z,15.20
2023-02-13T04:12:19.147Z,30.80
2023-02-13T04:15:09.079Z,27.20
2023-02-13T04:18:03.754Z,31.50
2023-02-13T04:20:33.189Z,25.00
2023-02-13T04:23:10.768Z,27.80
2023-02-13T04:25:44.112Z,30.10
2023-02-13T04:28:12.897Z,27.00
2023-02-13T04:30:41.609Z,26.40
2023-02-13T04:33:10.235Z,22.50
2023-02-13T04:35:38.895Z,26.50
2023-02-13T04:38:07.574Z,26.60
2023-02-13T04:40:36.243Z,25.50
2023-02-13T04:43:05.029Z,23.90
2023-02-13T04:45:33.720Z,24.50
2023-02-13T04:48:02.340Z,26.60
2023-02-13T04:50:30.990Z,25.60
2023-02-13T04:52:59.801Z,26.70
2023-02-13T04:55:29.249Z,23.70
2023-02-13T04:57:57.852Z,28.00
2023-02-13T05:00:29.015Z,25.60
2023-02-13T05:03:09.419Z,22.40
2023-02-13T05:05:39.441Z,20.50
2023-02-13T05:08:09.537Z,23.40
2023-02-13T05:10:38.103Z,26.00
2023-02-13T05:13:06.935Z,24.10
2023-02-13T05:15:35.619Z,27.80
2023-02-13T05:18:04.593Z,23.00
2023-02-13T05:20:33.813Z,32.00
2023-02-13T05:23:22.666Z,27.90
2023-02-13T05:25:52.039Z,34.30
2023-02-13T05:28:39.788Z,24.30
2023-02-13T05:31:09.275Z,31.90
2023-02-13T05:33:40.231Z,32.80
2023-02-13T05:36:09.809Z,27.60
2023-02-13T05:38:39.153Z,32.00
2023-02-13T05:41:07.770Z,30.90
2023-02-13T05:43:36.623Z,29.10
2023-02-13T05:46:10.779Z,27.70
2023-02-13T05:48:39.895Z,24.50
2023-02-13T05:51:09.434Z,23.30
2023-02-13T05:53:38.478Z,26.70
2023-02-13T05:56:07.994Z,21.30
2023-02-13T05:58:37.550Z,25.10
2023-02-13T06:01:06.671Z,25.40
2023-02-13T06:03:35.278Z,25.50
2023-02-13T06:06:03.942Z,23.40
2023-02-13T06:08:32.764Z,27.20
2023-02-13T06:11:02.032Z,30.40
2023-02-13T06:13:31.432Z,28.70
2023-02-13T06:16:00.131Z,25.80
2023-02-13T06:18:28.830Z,27.60
2023-02-13T06:20:57.743Z,23.30
2023-02-13T06:23:28.812Z,26.40
2023-02-13T06:26:07.544Z,27.70
2023-02-13T06:28:40.025Z,29.40
2023-02-13T06:31:09.700Z,27.60
2023-02-13T06:33:38.449Z,31.70
2023-02-13T06:36:09.247Z,22.50
2023-02-13T06:38:38.840Z,27.30
2023-02-13T06:41:07.443Z,21.90
2023-02-13T06:43:38.100Z,23.00
2023-02-13T06:46:09.409Z,30.10
2023-02-13T06:48:38.127Z,25.20
2023-02-13T06:51:06.729Z,23.40
2023-02-13T06:53:35.343Z,23.10
2023-02-13T06:56:06.767Z,26.60
2023-02-13T06:58:37.113Z,24.30
2023-02-13T07:01:06.793Z,16.10
2023-02-13T07:03:36.353Z,27.40
2023-02-13T07:06:05.354Z,22.20
2023-02-13T07:08:34.036Z,28.30
2023-02-13T07:11:02.667Z,31.90
2023-02-13T07:17:04.337Z,27.10
2023-02-13T07:19:33.172Z,30.10
2023-02-13T07:22:02.643Z,28.60
2023-02-13T07:24:33.932Z,23.00
2023-02-13T07:27:02.556Z,19.60
2023-02-13T07:29:31.056Z,27.50
2023-02-13T07:31:59.721Z,22.90
2023-02-13T07:34:28.296Z,22.40
2023-02-13T07:36:56.784Z,24.00
2023-02-13T07:39:26.847Z,27.20
2023-02-13T07:41:56.332Z,25.00
2023-02-13T07:44:27.620Z,24.90
2023-02-13T07:46:57.440Z,24.80
2023-02-13T07:49:28.495Z,25.50
2023-02-13T07:51:59.406Z,22.50
2023-02-13T07:54:28.011Z,22.00
2023-02-13T07:56:56.756Z,23.20
2023-02-13T07:59:25.713Z,19.60
2023-02-13T08:01:54.227Z,24.00
2023-02-13T08:04:24.771Z,19.00
2023-02-13T08:06:54.188Z,15.40
2023-02-13T08:09:41.571Z,18.80
2023-02-13T08:12:10.349Z,16.80
2023-02-13T08:14:38.981Z,17.60
2023-02-13T08:17:07.546Z,15.60
2023-02-13T08:19:36.302Z,18.00
2023-02-13T08:22:05.117Z,16.50
2023-02-13T08:24:33.830Z,9.60
2023-02-13T08:27:02.574Z,16.30
2023-02-13T08:29:31.710Z,17.90
2023-02-13T08:32:00.344Z,14.70
2023-02-13T08:34:29.000Z,16.50
2023-02-13T08:36:57.936Z,21.50
2023-02-13T08:39:27.209Z,15.30
2023-02-13T08:41:55.884Z,15.90
2023-02-13T08:44:24.650Z,16.90
2023-02-13T08:46:53.309Z,15.30
2023-02-13T08:49:23.648Z,16.20
2023-02-13T08:51:52.283Z,20.10
2023-02-13T08:54:20.907Z,15.00
2023-02-13T08:56:52.479Z,17.40
2023-02-13T08:59:22.061Z,16.80
2023-02-13T09:01:50.570Z,17.50
2023-02-13T09:04:21.906Z,21.90
2023-02-13T09:06:50.830Z,27.00
2023-02-13T09:09:19.558Z,26.60
2023-02-13T09:11:48.149Z,19.60
2023-02-13T09:14:16.692Z,19.40
2023-02-13T09:16:45.274Z,16.70
2023-02-13T09:19:13.903Z,18.80
2023-02-13T09:21:42.609Z,14.40
2023-02-13T09:24:12.436Z,20.80
2023-02-13T09:26:40.992Z,19.60
2023-02-13T09:29:09.569Z,19.40
2023-02-13T09:31:38.801Z,17.40
2023-02-13T09:34:07.350Z,22.30
2023-02-13T09:36:36.680Z,19.90
2023-02-13T09:42:38.861Z,20.30
2023-02-13T09:45:08.951Z,21.90
2023-02-13T09:47:45.668Z,17.50
2023-02-13T09:50:30.443Z,19.90
2023-02-13T09:53:00.379Z,20.10
2023-02-13T09:55:56.417Z,22.00
2023-02-13T09:58:52.561Z,18.30
2023-02-13T10:01:38.452Z,21.60
2023-02-13T10:04:48.479Z,17.70
2023-02-13T10:07:23.243Z,20.20
2023-02-13T10:10:35.281Z,19.80
2023-02-13T10:13:47.696Z,17.60
2023-02-13T10:16:28.588Z,17.00
2023-02-13T10:19:31.203Z,17.60
2023-02-13T10:22:22.450Z,19.00
2023-02-13T10:25:03.509Z,13.00
2023-02-13T10:27:41.276Z,19.10
2023-02-13T10:30:32.087Z,18.20
2023-02-13T10:33:20.067Z,14.80
2023-02-13T10:36:09.936Z,21.70
2023-02-13T10:39:01.996Z,19.50
2023-02-13T10:42:14.587Z,17.10
2023-02-13T10:45:04.333Z,16.10
2023-02-13T10:47:56.571Z,15.60
2023-02-13T10:53:50.863Z,13.40
2023-02-13T10:56:46.387Z,14.60
2023-02-13T10:59:23.833Z,14.20
2023-02-13T11:02:01.411Z,18.50
2023-02-13T11:04:30.261Z,15.00
2023-02-13T11:07:14.788Z,12.90
2023-02-13T11:09:48.690Z,19.50
2023-02-13T11:12:35.106Z,16.70
2023-02-13T11:15:20.188Z,17.00
2023-02-13T11:17:50.998Z,16.50
2023-02-13T11:20:32.943Z,21.50
2023-02-13T11:23:32.596Z,15.60
2023-02-13T11:26:02.091Z,14.90
2023-02-13T11:28:36.266Z,17.80
2023-02-13T11:31:24.043Z,15.80
2023-02-13T11:33:53.145Z,13.90
2023-02-13T11:36:34.796Z,16.20
2023-02-13T11:39:27.172Z,16.40
2023-02-13T11:41:56.812Z,20.00
2023-02-13T11:44:33.466Z,17.10
2023-02-13T11:47:05.228Z,15.80
2023-02-13T11:49:39.130Z,22.00
2023-02-13T11:52:23.893Z,21.80
2023-02-13T11:55:04.116Z,23.30
2023-02-13T11:57:39.105Z,21.50
2023-02-13T12:00:40.214Z,20.50
2023-02-13T12:03:33.630Z,20.80
2023-02-13T12:06:07.430Z,18.70
2023-02-13T12:08:39.007Z,24.80
2023-02-13T12:11:47.665Z,18.30
2023-02-13T12:14:35.427Z,18.70
2023-02-13T12:17:10.827Z,20.20
2023-02-13T12:19:49.767Z,16.60
2023-02-13T12:22:51.855Z,17.00
2023-02-13T12:25:57.837Z,17.90
2023-02-13T12:31:35.552Z,16.20
2023-02-13T12:34:34.227Z,14.80
2023-02-13T12:37:51.547Z,20.30
2023-02-13T12:42:09.332Z,19.80
2023-02-13T12:45:22.557Z,14.90
2023-02-13T12:48:29.113Z,16.50
2023-02-13T12:51:38.870Z,19.90
2023-02-13T12:55:00.734Z,19.30
2023-02-13T12:58:16.974Z,17.10
2023-02-13T13:01:24.142Z,18.60
2023-02-13T13:04:30.456Z,13.80
2023-02-13T13:08:07.367Z,16.80
2023-02-13T13:11:09.115Z,22.30
2023-02-13T13:14:29.282Z,31.40
2023-02-13T13:17:37.545Z,20.00
2023-02-13T13:20:35.662Z,15.20
2023-02-13T13:23:26.180Z,18.90
2023-02-13T13:26:10.068Z,18.70
2023-02-13T13:29:04.956Z,13.60
2023-02-13T13:32:15.806Z,16.30
2023-02-13T13:34:45.805Z,18.70
2023-02-13T13:37:49.782Z,16.20
2023-02-13T13:40:46.249Z,18.30
2023-02-13T13:43:28.743Z,16.40
2023-02-13T13:46:04.239Z,19.40
2023-02-13T13:49:06.769Z,18.00
2023-02-13T13:51:35.414Z,22.90
2023-02-13T13:54:11.632Z,15.00
2023-02-13T13:57:06.466Z,25.90
2023-02-13T13:59:42.780Z,20.80
2023-02-13T14:02:19.209Z,17.20
2023-02-13T14:05:37.185Z,16.90
2023-02-13T14:11:30.268Z,15.50
2023-02-13T14:14:27.527Z,17.30
2023-02-13T14:20:49.172Z,22.20
2023-02-13T14:24:00.782Z,18.70
2023-02-13T14:29:48.493Z,27.30
2023-02-13T14:32:36.895Z,27.10
2023-02-13T14:35:32.348Z,29.00
2023-02-13T14:38:05.602Z,23.30
2023-02-13T14:40:46.988Z,18.30
2023-02-13T14:43:36.217Z,18.80
2023-02-13T14:46:16.854Z,17.80
2023-02-13T14:49:12.417Z,18.60
2023-02-13T14:51:49.565Z,17.20
2023-02-13T14:54:28.786Z,17.70
2023-02-13T14:57:20.510Z,20.70
2023-02-13T15:00:08.970Z,19.20
2023-02-13T15:02:46.961Z,23.20
2023-02-13T15:05:20.390Z,20.90
2023-02-13T15:08:13.191Z,23.20
2023-02-13T15:10:45.487Z,26.80
2023-02-13T15:13:39.620Z,24.10
2023-02-13T15:16:14.859Z,23.20
2023-02-13T15:18:52.609Z,22.10
2023-02-13T15:21:26.238Z,22.70
2023-02-13T15:23:57.015Z,22.60
2023-02-13T15:26:28.937Z,20.50
2023-02-13T15:29:29.399Z,25.20
2023-02-13T15:32:17.582Z,25.30
2023-02-13T15:34:49.441Z,22.30
2023-02-13T15:37:25.006Z,31.30
2023-02-13T15:39:53.845Z,22.70
2023-02-13T15:42:22.856Z,24.50
2023-02-13T15:44:58.472Z,29.20
2023-02-13T15:47:33.803Z,25.70
2023-02-13T15:50:04.210Z,26.60
2023-02-13T15:52:39.429Z,25.80
2023-02-13T15:55:22.341Z,26.80
2023-02-13T16:00:30.635Z,27.80
2023-02-13T16:03:03.093Z,22.50
2023-02-13T16:11:47.756Z,26.00
2023-02-13T16:14:30.245Z,25.30
2023-02-13T16:17:36.907Z,23.60
2023-02-13T16:20:15.056Z,22.40
2023-02-13T16:23:20.013Z,22.80
2023-02-13T16:25:48.973Z,23.10
2023-02-13T16:28:36.482Z,24.40
2023-02-13T16:31:07.284Z,19.20
2023-02-13T16:33:44.103Z,19.20
2023-02-13T16:36:14.935Z,23.10
2023-02-13T16:38:49.942Z,23.20
2023-02-13T16:41:26.001Z,27.10
2023-02-13T16:44:04.737Z,25.20
2023-02-13T16:46:42.223Z,27.80
2023-02-13T16:49:10.829Z,23.10
2023-02-13T16:51:51.294Z,26.60
2023-02-13T16:54:29.804Z,24.30
2023-02-13T16:57:35.916Z,22.80
2023-02-13T17:00:22.692Z,25.20
2023-02-13T17:02:54.473Z,25.40
2023-02-13T17:05:34.410Z,27.00
2023-02-13T17:08:04.153Z,22.70
2023-02-13T17:10:39.145Z,24.50
2023-02-13T17:13:11.586Z,26.50
2023-02-13T17:15:45.815Z,25.50
2023-02-13T17:18:14.558Z,21.40
2023-02-13T17:20:45.935Z,19.80
2023-02-13T17:23:23.016Z,19.50
2023-02-13T17:25:54.081Z,21.40
2023-02-13T17:28:26.495Z,22.40
2023-02-13T17:30:58.914Z,20.30
2023-02-13T17:33:37.409Z,26.10
2023-02-13T17:36:14.196Z,22.20
2023-02-13T17:38:46.973Z,20.60
2023-02-13T17:41:16.244Z,20.70
2023-02-13T17:43:44.798Z,21.20
2023-02-13T17:46:15.490Z,23.00
2023-02-13T17:48:44.060Z,20.70
2023-02-13T17:51:15.854Z,22.80
2023-02-13T17:53:44.550Z,23.10
2023-02-13T17:56:13.206Z,18.70
2023-02-13T17:58:42.359Z,20.40
2023-02-13T18:01:11.946Z,24.30
2023-02-13T18:03:43.131Z,20.20
2023-02-13T18:06:19.624Z,22.50
2023-02-13T18:08:49.564Z,23.40
2023-02-13T18:11:18.633Z,20.00
2023-02-13T18:13:48.595Z,19.30
2023-02-13T18:16:17.575Z,22.90
2023-02-13T18:18:46.783Z,23.80
2023-02-13T18:21:15.597Z,23.30
2023-02-13T18:23:44.128Z,25.20
2023-02-13T18:26:12.735Z,19.00
2023-02-13T18:28:45.051Z,16.40
2023-02-13T18:31:14.528Z,18.40
2023-02-13T18:33:43.302Z,14.20
2023-02-13T18:36:13.139Z,17.50
2023-02-13T18:38:41.783Z,12.50
2023-02-13T18:41:10.754Z,13.30
2023-02-13T18:43:39.766Z,18.70
2023-02-13T18:46:09.503Z,14.80
2023-02-13T18:48:38.770Z,11.50
2023-02-13T18:51:07.581Z,11.90
2023-02-13T18:53:36.341Z,10.50
2023-02-13T18:56:07.474Z,10.40
2023-02-13T19:02:10.935Z,10.80
2023-02-13T19:04:39.865Z,13.80
2023-02-13T19:07:08.656Z,11.10
2023-02-13T19:09:40.429Z,12.60
2023-02-13T19:12:09.231Z,12.40
2023-02-13T19:14:39.642Z,14.10
2023-02-13T19:17:09.543Z,14.10
2023-02-13T19:19:41.298Z,13.40
2023-02-13T19:22:09.946Z,15.60
2023-02-13T19:24:39.263Z,15.60
2023-02-13T19:27:08.069Z,17.30
2023-02-13T19:29:36.693Z,19.80
2023-02-13T19:32:05.295Z,17.30
2023-02-13T19:34:34.179Z,21.90
2023-02-13T19:37:02.871Z,20.50
2023-02-13T19:39:31.612Z,24.10
2023-02-13T19:42:00.403Z,20.70
2023-02-13T19:44:29.317Z,24.20
2023-02-13T19:46:58.070Z,22.50
2023-02-13T19:49:29.120Z,19.90
2023-02-13T19:51:58.337Z,23.90
2023-02-13T19:54:27.452Z,21.70
2023-02-13T19:57:00.942Z,17.60
2023-02-13T19:59:29.862Z,18.20
2023-02-13T20:01:58.956Z,17.30
2023-02-13T20:04:28.336Z,16.70
2023-02-13T20:06:58.484Z,15.20
2023-02-13T20:09:27.164Z,15.10
2023-02-13T20:12:00.663Z,15.90
2023-02-13T20:14:34.213Z,17.70
2023-02-13T20:17:03.552Z,16.40
2023-02-13T20:19:32.115Z,15.40
2023-02-13T20:22:01.883Z,15.80
2023-02-13T20:24:30.523Z,17.00
2023-02-13T20:26:59.539Z,14.60
2023-02-13T20:29:28.337Z,14.30
2023-02-13T20:31:57.316Z,14.80
2023-02-13T20:34:27.941Z,20.70
2023-02-13T20:36:58.326Z,26.10
2023-02-13T20:39:27.006Z,25.10
2023-02-13T20:41:55.770Z,23.20
2023-02-13T20:44:24.366Z,21.70
2023-02-13T20:46:53.109Z,27.00
2023-02-13T20:49:22.135Z,19.30
2023-02-13T20:51:50.804Z,17.50
2023-02-13T20:54:20.045Z,20.60
2023-02-13T20:56:48.621Z,21.20
2023-02-13T20:59:17.348Z,20.40
2023-02-13T21:01:46.719Z,18.80
2023-02-13T21:04:19.393Z,19.60
2023-02-13T21:06:48.797Z,15.80
2023-02-13T21:09:17.414Z,19.00
2023-02-13T21:11:46.089Z,18.80
2023-02-13T21:14:14.802Z,19.70
2023-02-13T21:16:44.315Z,18.60
2023-02-13T21:19:19.340Z,16.00
2023-02-13T21:21:48.150Z,20.60
2023-02-13T21:24:22.309Z,19.30
2023-02-13T21:26:53.043Z,19.60
2023-02-13T21:29:21.688Z,19.20
2023-02-13T21:31:51.280Z,21.30
2023-02-13T21:34:20.155Z,18.10
2023-02-13T21:36:48.999Z,19.30
2023-02-13T21:39:17.577Z,19.80
2023-02-13T21:41:46.907Z,16.30
2023-02-13T21:44:16.947Z,19.10
2023-02-13T21:46:46.121Z,20.30
2023-02-13T21:49:18.746Z,23.00
2023-02-13T21:53:58.479Z,17.00
2023-02-13T21:56:33.582Z,15.40
2023-02-13T21:59:03.806Z,17.00
2023-02-13T22:04:23.886Z,15.70
2023-02-13T22:06:54.885Z,15.60
2023-02-13T22:09:23.561Z,16.10
2023-02-13T22:11:55.124Z,16.30
2023-02-13T22:14:29.167Z,17.40
2023-02-13T22:16:59.930Z,18.90
2023-02-13T22:19:28.521Z,16.30
2023-02-13T22:21:57.102Z,17.20
2023-02-13T22:24:27.859Z,18.50
2023-02-13T22:26:56.417Z,18.50
2023-02-13T22:29:27.049Z,18.30
2023-02-13T22:31:55.695Z,21.40
2023-02-13T22:34:24.231Z,18.00
2023-02-13T22:36:52.753Z,14.90
2023-02-13T22:39:21.359Z,19.90
2023-02-13T22:41:49.888Z,17.70
2023-02-13T22:44:18.478Z,21.80
2023-02-13T22:46:46.921Z,19.70
2023-02-13T22:49:15.530Z,17.80
2023-02-13T22:51:44.109Z,17.20
2023-02-13T22:54:13.107Z,15.50
2023-02-13T22:56:41.702Z,17.70
2023-02-13T22:59:12.180Z,18.30
2023-02-13T23:01:40.691Z,18.30
2023-02-13T23:04:09.420Z,17.60
2023-02-13T23:06:37.940Z,17.00
2023-02-13T23:09:08.096Z,16.30
2023-02-13T23:11:55.315Z,19.10
2023-02-13T23:14:25.343Z,19.50
2023-02-13T23:17:12.377Z,20.70
2023-02-13T23:19:40.952Z,16.90
2023-02-13T23:22:13.642Z,15.60
2023-02-13T23:24:42.320Z,15.80
2023-02-13T23:27:13.025Z,17.30
2023-02-13T23:29:41.756Z,15.60
2023-02-13T23:32:10.445Z,14.10
2023-02-13T23:34:39.079Z,16.00
2023-02-13T23:37:10.513Z,15.90
2023-02-13T23:39:39.071Z,14.90
2023-02-13T23:42:07.636Z,16.20
2023-02-13T23:44:36.225Z,13.60
2023-02-13T23:47:05.001Z,14.90
2023-02-13T23:49:33.557Z,14.70
2023-02-13T23:52:02.255Z,23.60
2023-02-13T23:54:30.774Z,15.20
2023-02-13T23:57:02.492Z,14.40
2023-02-13T23:59:33.878Z,14.50
